Relevés horaires Bierset (Belgique)


Relevés horaires à Bierset - Samedi 07 Juill. 2018
Heure UTC1 Température [°C] Vent [km/h] Hum. [%] Pres.4 [hPa] Visi. [Km] Nébu. [octa] Préc.5 [mm] Cond.
2m. Res. Ros. Dir.2 Vit. Moy. Raf.3
23:00 18.0 18.0 10.3 NE 7.4 7.4 9.3 61 1023.9(0.4/3h) 30 0/8 -- --
22:00 18.8 18.8 11.3 NE 5.6 5.6 11.1 62 1023.8(0.4/3h) 25 2/8 -- --
21:00 19.1 19.1 11.3 NNE 3.7 7.4 11.1 61 1023.6(0.4/3h) 25 4/8 -- --
20:00 20.7 20.7 11.5 N 3.7 5.6 7.4 56 1023.3(0.0/3h) 25 5/8 -- --
19:00 22.8 22.8 11.0 N 5.6 7.4 11.1 47 1023.1(-0.2/3h) 25 6/8 -- --
18:00 24.1 24.1 10.6 N 7.4 11.1 16.7 43 1022.9(-0.4/3h) 25 5/8 0/12h
--
17:00 25.2 25.2 10.5 NNO 7.4 9.3 16.7 40 1022.9(-0.3/3h) 25 7/8 -- --
16:00 25.0 25.0 9.9 N 9.3 11.1 16.7 39 1023.3(0.0/3h) 25 7/8 -- --
15:00 25.7 25.7 9.8 N 7.4 9.3 14.8 37 1023.2(-0.2/3h) 25 5/8 -- --
14:00 25.8 25.8 9.6 ONO 7.4 9.3 14.8 36 1023.2(-0.5/3h) 25 6/8 -- --
13:00 26.2 26.2 9.9 NNO 7.4 9.3 13.0 36 1023.2(-0.5/3h) 25 3/8 -- --
12:00 24.8 24.8 10.3 NNO 7.4 7.4 11.1 40 1023.5(-0.3/3h) 25 3/8 0/6h
--
11:00 24.0 24.0 11.9 N 3.7 7.4 11.1 47 1023.8(0.1/3h) 15 3/8 -- --
10:00 22.7 22.7 11.7 N 3.7 7.4 11.1 50 1023.9(0.5/3h) 15 3/8 -- --
09:00 22.2 22.2 12.8 N 5.6 7.4 11.1 55 1024(1.0/3h) 15 3/8 -- --
08:00 20.8 20.8 11.5 N 3.7 5.6 7.4 55 1023.9(1.1/3h) 15 1/8 -- --
07:00 19.0 19.0 13.6 NNO 1.9 1.9 3.7 71 1023.7(1.0/3h) 15 1/8 -- --
06:00 17.3 17.3 13.9 N 1.9 3.7 5.6 80 1023.4(0.9/3h) 15 1/8 0/12h
--
05:00 15.8 15.8 13.8 NO 1.9 3.7 3.7 88 1023.1(0.5/3h) 15 1/8 -- --
04:00 15.5 15.5 13.4 NO 1.9 3.7 5.6 87 1022.9(-0.2/3h) 15 5/8 -- --
03:00 16.5 16.5 13.7 ONO 3.7 3.7 5.6 84 1022.5(-0.1/3h) 15 5/8 -- --
02:00 17.5 17.5 14.0 NO 3.7 3.7 5.6 80 1022.5(0.1/3h) 15 5/8 -- --
01:00 18.8 18.8 14.1 ONO 3.7 3.7 5.6 74 1022.4(0.1/3h) 15 3/8 -- --
00:00 19.6 19.6 14.5 O 1.9 5.6 7.4 72 1022.4(0.3/3h) 25 8/8 0/6h
0/24h
--

1 Coordinated Universal Time. Actuellement il est 05:00 locale et 03:00 UTC.

2 Le vent souffle depuis la direction indiquée vers la direction oposée.

3 Les rafales max. sont disponible 40 min après l'heure du relevé.

4 Pour les stations d'altitude (plus de 600m) le géopotentiel du niveau le plus proche de la pression obligatoire est indiqué.

5 Les stations disposant d'un diffuseur peuvent indiquer "trace". Cela signifie que des précipitations ont touchés le sol mais que la quantité est inférieure à 0.1 mm.

Récapitulatif de la journée
Température [°C] Vent [km/h] Ensoleillement4 [h] Precipitations totale5 [mm] Pression [Hpa]
Min1 Max.2 Moy.3 Max. Min Max.
15.2 27.1 6.6 16.7 0 h 0 min 0 1022.4 1024.0

1 Température minimale relevée entre 18:00 UTC la veille et 18:00 UTC le jour donné.

2 Température maximale relevée entre 06:00 UTC le jour donné et 06:00 UTC le lendemain.

3 Vent moyen de la journée basé sur les relevés horaires.

4 Ensoleillement en heures relevé entre 06:00 UTC la veille et 06:00 UTC le jour donné.

5 Précipitations totales tombées entre 06:00 UTC la jour donné et 06:00 UTC le lendemain.

Graphiques horaires